West Baraboo, Wisconsin
Current Conditions -  °F | °C
As of 10:35 PM on Friday 24 Oct 2014 (Local Time) from KDLL Reporting Station
Haze Haze  
Wind Chill: 57°   Ceiling: 2300
Heat Index: 57°   Visibility: 4mi
Dew Point: 53°   Wind: 6mph
Humidity: 87%   Direction: 230°SW
Pressure: 29.89"   Gusts: NA
Location:  43.4869°N, 89.7322°W
Report Text: KDLL 250335Z AUTO 23005KT 4SM BR SCT011 OVC023 14/12 A2989 RMK AO2 T01390117
Loading
Personal Weather Stations






























Interactive Weather Map
Tropical Storm Tracking
New forecast layout! Learn more

10-Day Weather Forecast

Advertisements
Track Severe Weather on mobile